sensor_id;sensor_type;location;lat;lon;timestamp;P1;durP1;ratioP1;P2;durP2;ratioP2
50350;SDS011;36250;48.740;22.174;2023-04-25T00:00:56;16.48;;;9.70;;
50350;SDS011;36250;48.740;22.174;2023-04-25T00:03:21;11.57;;;10.38;;
50350;SDS011;36250;48.740;22.174;2023-04-25T00:05:50;12.43;;;11.15;;
50350;SDS011;36250;48.740;22.174;2023-04-25T00:08:16;12.25;;;10.55;;
50350;SDS011;36250;48.740;22.174;2023-04-25T00:10:42;12.77;;;10.90;;
50350;SDS011;36250;48.740;22.174;2023-04-25T00:13:08;11.23;;;9.95;;
50350;SDS011;36250;48.740;22.174;2023-04-25T00:15:33;14.18;;;10.02;;
50350;SDS011;36250;48.740;22.174;2023-04-25T00:18:00;13.10;;;9.50;;
50350;SDS011;36250;48.740;22.174;2023-04-25T00:20:26;16.05;;;10.98;;
50350;SDS011;36250;48.740;22.174;2023-04-25T00:22:51;11.93;;;10.80;;
50350;SDS011;36250;48.740;22.174;2023-04-25T00:25:18;13.32;;;10.48;;
50350;SDS011;36250;48.740;22.174;2023-04-25T00:27:43;12.00;;;10.75;;
50350;SDS011;36250;48.740;22.174;2023-04-25T00:30:09;12.13;;;9.93;;
50350;SDS011;36250;48.740;22.174;2023-04-25T00:32:35;11.45;;;10.35;;
50350;SDS011;36250;48.740;22.174;2023-04-25T00:35:00;12.50;;;11.23;;
50350;SDS011;36250;48.740;22.174;2023-04-25T00:37:25;12.57;;;10.68;;
50350;SDS011;36250;48.740;22.174;2023-04-25T00:39:51;12.93;;;10.98;;
50350;SDS011;36250;48.740;22.174;2023-04-25T00:42:18;12.25;;;11.05;;
50350;SDS011;36250;48.740;22.174;2023-04-25T00:44:44;12.38;;;11.10;;
50350;SDS011;36250;48.740;22.174;2023-04-25T00:47:10;13.23;;;11.95;;
50350;SDS011;36250;48.740;22.174;2023-04-25T00:49:36;13.25;;;11.23;;
50350;SDS011;36250;48.740;22.174;2023-04-25T00:52:01;13.65;;;12.25;;
50350;SDS011;36250;48.740;22.174;2023-04-25T00:54:27;13.32;;;11.93;;
50350;SDS011;36250;48.740;22.174;2023-04-25T00:56:52;13.20;;;11.55;;
50350;SDS011;36250;48.740;22.174;2023-04-25T00:59:18;15.35;;;13.05;;
50350;SDS011;36250;48.740;22.174;2023-04-25T01:01:45;13.63;;;12.23;;
50350;SDS011;36250;48.740;22.174;2023-04-25T01:04:10;16.20;;;11.85;;
50350;SDS011;36250;48.740;22.174;2023-04-25T01:06:36;13.95;;;12.52;;
50350;SDS011;36250;48.740;22.174;2023-04-25T01:09:01;16.73;;;11.93;;
50350;SDS011;36250;48.740;22.174;2023-04-25T01:11:27;13.25;;;11.73;;
50350;SDS011;36250;48.740;22.174;2023-04-25T01:13:53;12.60;;;11.40;;
50350;SDS011;36250;48.740;22.174;2023-04-25T01:16:18;13.80;;;12.32;;
50350;SDS011;36250;48.740;22.174;2023-04-25T01:18:43;12.48;;;11.10;;
50350;SDS011;36250;48.740;22.174;2023-04-25T01:21:10;14.00;;;12.25;;
50350;SDS011;36250;48.740;22.174;2023-04-25T01:23:38;12.70;;;11.38;;
50350;SDS011;36250;48.740;22.174;2023-04-25T01:26:05;13.82;;;12.35;;
50350;SDS011;36250;48.740;22.174;2023-04-25T01:28:33;13.88;;;12.38;;
50350;SDS011;36250;48.740;22.174;2023-04-25T01:30:59;12.60;;;11.30;;
50350;SDS011;36250;48.740;22.174;2023-04-25T01:33:25;13.45;;;12.05;;
50350;SDS011;36250;48.740;22.174;2023-04-25T01:35:50;13.25;;;11.85;;
50350;SDS011;36250;48.740;22.174;2023-04-25T01:38:16;16.00;;;13.05;;
50350;SDS011;36250;48.740;22.174;2023-04-25T01:40:42;15.85;;;14.15;;
50350;SDS011;36250;48.740;22.174;2023-04-25T01:43:10;13.25;;;11.95;;
50350;SDS011;36250;48.740;22.174;2023-04-25T01:45:37;16.48;;;12.63;;
50350;SDS011;36250;48.740;22.174;2023-04-25T01:48:09;13.80;;;12.43;;
50350;SDS011;36250;48.740;22.174;2023-04-25T01:50:37;13.98;;;11.77;;
50350;SDS011;36250;48.740;22.174;2023-04-25T01:53:04;13.95;;;11.60;;
50350;SDS011;36250;48.740;22.174;2023-04-25T01:55:29;13.18;;;11.15;;
50350;SDS011;36250;48.740;22.174;2023-04-25T01:57:55;12.98;;;11.68;;
50350;SDS011;36250;48.740;22.174;2023-04-25T02:00:20;12.05;;;11.00;;
50350;SDS011;36250;48.740;22.174;2023-04-25T02:02:46;16.17;;;11.48;;
50350;SDS011;36250;48.740;22.174;2023-04-25T02:05:11;12.27;;;11.07;;
50350;SDS011;36250;48.740;22.174;2023-04-25T02:07:37;12.00;;;10.80;;
50350;SDS011;36250;48.740;22.174;2023-04-25T02:10:02;11.13;;;10.13;;
50350;SDS011;36250;48.740;22.174;2023-04-25T02:12:28;12.25;;;9.80;;
50350;SDS011;36250;48.740;22.174;2023-04-25T02:14:53;13.27;;;10.40;;
50350;SDS011;36250;48.740;22.174;2023-04-25T02:17:19;11.15;;;9.95;;
50350;SDS011;36250;48.740;22.174;2023-04-25T02:19:46;11.35;;;10.25;;
50350;SDS011;36250;48.740;22.174;2023-04-25T02:22:11;11.15;;;10.05;;
50350;SDS011;36250;48.740;22.174;2023-04-25T02:24:37;13.05;;;10.45;;
50350;SDS011;36250;48.740;22.174;2023-04-25T02:27:02;12.07;;;10.88;;
50350;SDS011;36250;48.740;22.174;2023-04-25T02:29:27;11.80;;;10.63;;
50350;SDS011;36250;48.740;22.174;2023-04-25T02:31:54;11.63;;;10.43;;
50350;SDS011;36250;48.740;22.174;2023-04-25T02:34:19;11.73;;;10.63;;
50350;SDS011;36250;48.740;22.174;2023-04-25T02:36:44;13.45;;;11.07;;
50350;SDS011;36250;48.740;22.174;2023-04-25T02:39:10;11.65;;;9.95;;
50350;SDS011;36250;48.740;22.174;2023-04-25T02:41:35;11.48;;;10.38;;
50350;SDS011;36250;48.740;22.174;2023-04-25T02:44:01;12.48;;;11.18;;
50350;SDS011;36250;48.740;22.174;2023-04-25T02:46:26;11.50;;;10.30;;
50350;SDS011;36250;48.740;22.174;2023-04-25T02:48:51;13.93;;;12.45;;
50350;SDS011;36250;48.740;22.174;2023-04-25T02:51:17;13.38;;;12.10;;
50350;SDS011;36250;48.740;22.174;2023-04-25T02:53:42;13.88;;;12.50;;
50350;SDS011;36250;48.740;22.174;2023-04-25T02:56:07;15.05;;;13.02;;
50350;SDS011;36250;48.740;22.174;2023-04-25T02:58:33;15.40;;;12.85;;
50350;SDS011;36250;48.740;22.174;2023-04-25T03:00:58;12.93;;;11.63;;
50350;SDS011;36250;48.740;22.174;2023-04-25T03:03:23;12.88;;;11.68;;
50350;SDS011;36250;48.740;22.174;2023-04-25T03:05:49;14.75;;;13.18;;
50350;SDS011;36250;48.740;22.174;2023-04-25T03:08:16;17.83;;;14.07;;
50350;SDS011;36250;48.740;22.174;2023-04-25T03:10:42;15.20;;;13.40;;
50350;SDS011;36250;48.740;22.174;2023-04-25T03:13:07;15.57;;;13.98;;
50350;SDS011;36250;48.740;22.174;2023-04-25T03:15:32;15.75;;;14.13;;
50350;SDS011;36250;48.740;22.174;2023-04-25T03:17:58;14.98;;;13.38;;
50350;SDS011;36250;48.740;22.174;2023-04-25T03:20:24;16.63;;;14.93;;
50350;SDS011;36250;48.740;22.174;2023-04-25T03:22:49;16.27;;;14.65;;
50350;SDS011;36250;48.740;22.174;2023-04-25T03:25:15;15.10;;;13.57;;
50350;SDS011;36250;48.740;22.174;2023-04-25T03:27:40;16.00;;;14.38;;
50350;SDS011;36250;48.740;22.174;2023-04-25T03:30:06;16.33;;;14.68;;
50350;SDS011;36250;48.740;22.174;2023-04-25T03:32:32;15.40;;;13.75;;
50350;SDS011;36250;48.740;22.174;2023-04-25T03:34:58;16.77;;;14.63;;
50350;SDS011;36250;48.740;22.174;2023-04-25T03:37:23;16.13;;;14.50;;
50350;SDS011;36250;48.740;22.174;2023-04-25T03:39:49;17.40;;;14.63;;
50350;SDS011;36250;48.740;22.174;2023-04-25T03:42:14;17.08;;;15.00;;
50350;SDS011;36250;48.740;22.174;2023-04-25T03:44:39;16.45;;;14.70;;
50350;SDS011;36250;48.740;22.174;2023-04-25T03:47:05;16.25;;;14.65;;
50350;SDS011;36250;48.740;22.174;2023-04-25T03:49:31;16.85;;;15.05;;
50350;SDS011;36250;48.740;22.174;2023-04-25T03:51:57;18.25;;;16.02;;
50350;SDS011;36250;48.740;22.174;2023-04-25T03:54:23;15.35;;;13.90;;
50350;SDS011;36250;48.740;22.174;2023-04-25T03:56:48;16.40;;;14.90;;
50350;SDS011;36250;48.740;22.174;2023-04-25T03:59:13;18.42;;;15.07;;
50350;SDS011;36250;48.740;22.174;2023-04-25T04:01:38;15.82;;;14.23;;
50350;SDS011;36250;48.740;22.174;2023-04-25T04:04:04;16.15;;;14.35;;
50350;SDS011;36250;48.740;22.174;2023-04-25T04:06:29;15.73;;;13.77;;
50350;SDS011;36250;48.740;22.174;2023-04-25T04:08:55;16.33;;;14.63;;
50350;SDS011;36250;48.740;22.174;2023-04-25T04:11:20;14.18;;;12.75;;
50350;SDS011;36250;48.740;22.174;2023-04-25T04:13:46;14.82;;;13.30;;
50350;SDS011;36250;48.740;22.174;2023-04-25T04:16:11;14.98;;;12.65;;
50350;SDS011;36250;48.740;22.174;2023-04-25T04:18:36;13.80;;;11.93;;
50350;SDS011;36250;48.740;22.174;2023-04-25T04:21:02;15.20;;;13.60;;
50350;SDS011;36250;48.740;22.174;2023-04-25T04:23:27;14.07;;;12.75;;
50350;SDS011;36250;48.740;22.174;2023-04-25T04:25:53;15.55;;;13.95;;
50350;SDS011;36250;48.740;22.174;2023-04-25T04:28:19;16.38;;;14.77;;
50350;SDS011;36250;48.740;22.174;2023-04-25T04:30:45;15.40;;;13.90;;
50350;SDS011;36250;48.740;22.174;2023-04-25T04:33:11;15.18;;;13.60;;
50350;SDS011;36250;48.740;22.174;2023-04-25T04:35:37;15.57;;;13.98;;
50350;SDS011;36250;48.740;22.174;2023-04-25T04:38:02;17.55;;;15.27;;
50350;SDS011;36250;48.740;22.174;2023-04-25T04:40:27;15.80;;;14.20;;
50350;SDS011;36250;48.740;22.174;2023-04-25T04:42:53;16.33;;;14.73;;
50350;SDS011;36250;48.740;22.174;2023-04-25T04:45:21;14.85;;;13.13;;
50350;SDS011;36250;48.740;22.174;2023-04-25T04:47:47;18.50;;;14.68;;
50350;SDS011;36250;48.740;22.174;2023-04-25T04:50:13;15.18;;;13.68;;
50350;SDS011;36250;48.740;22.174;2023-04-25T04:52:39;15.05;;;13.55;;
50350;SDS011;36250;48.740;22.174;2023-04-25T04:55:05;18.45;;;15.45;;
50350;SDS011;36250;48.740;22.174;2023-04-25T04:57:31;17.98;;;16.10;;
50350;SDS011;36250;48.740;22.174;2023-04-25T04:59:58;18.02;;;16.13;;
50350;SDS011;36250;48.740;22.174;2023-04-25T05:02:23;15.75;;;14.07;;
50350;SDS011;36250;48.740;22.174;2023-04-25T05:04:49;18.45;;;16.40;;
50350;SDS011;36250;48.740;22.174;2023-04-25T05:07:15;16.50;;;14.70;;
50350;SDS011;36250;48.740;22.174;2023-04-25T05:09:40;17.92;;;16.13;;
50350;SDS011;36250;48.740;22.174;2023-04-25T05:12:06;17.00;;;15.23;;
50350;SDS011;36250;48.740;22.174;2023-04-25T05:14:32;17.63;;;15.77;;
50350;SDS011;36250;48.740;22.174;2023-04-25T05:16:57;16.88;;;14.82;;
50350;SDS011;36250;48.740;22.174;2023-04-25T05:19:23;23.83;;;17.58;;
50350;SDS011;36250;48.740;22.174;2023-04-25T05:21:48;18.88;;;16.67;;
50350;SDS011;36250;48.740;22.174;2023-04-25T05:24:14;19.17;;;17.13;;
50350;SDS011;36250;48.740;22.174;2023-04-25T05:26:40;19.80;;;16.85;;
50350;SDS011;36250;48.740;22.174;2023-04-25T05:29:05;18.25;;;16.40;;
50350;SDS011;36250;48.740;22.174;2023-04-25T05:31:31;18.58;;;16.25;;
50350;SDS011;36250;48.740;22.174;2023-04-25T05:33:56;17.20;;;15.40;;
50350;SDS011;36250;48.740;22.174;2023-04-25T05:36:22;18.55;;;15.23;;
50350;SDS011;36250;48.740;22.174;2023-04-25T05:38:47;16.63;;;14.98;;
50350;SDS011;36250;48.740;22.174;2023-04-25T05:41:13;17.55;;;15.70;;
50350;SDS011;36250;48.740;22.174;2023-04-25T05:43:38;16.77;;;15.18;;
50350;SDS011;36250;48.740;22.174;2023-04-25T05:46:03;16.10;;;14.10;;
50350;SDS011;36250;48.740;22.174;2023-04-25T05:48:29;16.77;;;15.18;;
50350;SDS011;36250;48.740;22.174;2023-04-25T05:50:55;17.02;;;15.30;;
50350;SDS011;36250;48.740;22.174;2023-04-25T05:53:20;17.15;;;15.27;;
50350;SDS011;36250;48.740;22.174;2023-04-25T05:55:46;16.45;;;14.77;;
50350;SDS011;36250;48.740;22.174;2023-04-25T05:58:12;16.02;;;14.32;;
50350;SDS011;36250;48.740;22.174;2023-04-25T06:00:37;16.00;;;14.35;;
50350;SDS011;36250;48.740;22.174;2023-04-25T06:03:03;16.20;;;14.63;;
50350;SDS011;36250;48.740;22.174;2023-04-25T06:05:29;16.10;;;14.43;;
50350;SDS011;36250;48.740;22.174;2023-04-25T06:07:54;15.85;;;14.25;;
50350;SDS011;36250;48.740;22.174;2023-04-25T06:10:20;14.55;;;12.35;;
50350;SDS011;36250;48.740;22.174;2023-04-25T06:12:46;14.25;;;12.93;;
50350;SDS011;36250;48.740;22.174;2023-04-25T06:15:11;15.63;;;14.02;;
50350;SDS011;36250;48.740;22.174;2023-04-25T06:17:36;14.48;;;13.02;;
50350;SDS011;36250;48.740;22.174;2023-04-25T06:20:02;15.27;;;12.88;;
50350;SDS011;36250;48.740;22.174;2023-04-25T06:22:28;19.42;;;14.10;;
50350;SDS011;36250;48.740;22.174;2023-04-25T06:24:54;15.40;;;13.88;;
50350;SDS011;36250;48.740;22.174;2023-04-25T06:27:22;14.32;;;12.93;;
50350;SDS011;36250;48.740;22.174;2023-04-25T06:29:47;13.90;;;11.98;;
50350;SDS011;36250;48.740;22.174;2023-04-25T06:32:12;15.50;;;13.98;;
50350;SDS011;36250;48.740;22.174;2023-04-25T06:34:38;15.82;;;14.30;;
50350;SDS011;36250;48.740;22.174;2023-04-25T06:37:03;14.20;;;12.80;;
50350;SDS011;36250;48.740;22.174;2023-04-25T06:39:28;15.05;;;13.55;;
50350;SDS011;36250;48.740;22.174;2023-04-25T06:41:54;14.02;;;12.70;;
50350;SDS011;36250;48.740;22.174;2023-04-25T06:44:19;14.32;;;12.82;;
50350;SDS011;36250;48.740;22.174;2023-04-25T06:46:44;14.55;;;13.05;;
50350;SDS011;36250;48.740;22.174;2023-04-25T06:49:10;14.77;;;13.38;;
50350;SDS011;36250;48.740;22.174;2023-04-25T06:51:35;14.02;;;12.48;;
50350;SDS011;36250;48.740;22.174;2023-04-25T06:54:00;16.02;;;13.32;;
50350;SDS011;36250;48.740;22.174;2023-04-25T06:56:26;15.73;;;13.02;;
50350;SDS011;36250;48.740;22.174;2023-04-25T06:58:52;14.35;;;13.05;;
50350;SDS011;36250;48.740;22.174;2023-04-25T07:01:18;15.43;;;13.55;;
50350;SDS011;36250;48.740;22.174;2023-04-25T07:03:43;15.98;;;14.40;;
50350;SDS011;36250;48.740;22.174;2023-04-25T07:06:09;14.48;;;13.05;;
50350;SDS011;36250;48.740;22.174;2023-04-25T07:08:34;14.82;;;13.43;;
50350;SDS011;36250;48.740;22.174;2023-04-25T07:10:59;14.63;;;13.23;;
50350;SDS011;36250;48.740;22.174;2023-04-25T07:13:25;15.25;;;13.65;;
50350;SDS011;36250;48.740;22.174;2023-04-25T07:15:50;14.45;;;12.77;;
50350;SDS011;36250;48.740;22.174;2023-04-25T07:18:15;15.00;;;13.68;;
50350;SDS011;36250;48.740;22.174;2023-04-25T07:20:41;14.93;;;13.52;;
50350;SDS011;36250;48.740;22.174;2023-04-25T07:23:06;16.67;;;15.18;;
50350;SDS011;36250;48.740;22.174;2023-04-25T07:25:31;15.25;;;13.85;;
50350;SDS011;36250;48.740;22.174;2023-04-25T07:27:57;15.65;;;14.00;;
50350;SDS011;36250;48.740;22.174;2023-04-25T07:30:22;15.38;;;13.77;;
50350;SDS011;36250;48.740;22.174;2023-04-25T07:32:48;15.30;;;12.88;;
50350;SDS011;36250;48.740;22.174;2023-04-25T07:35:14;13.95;;;12.50;;
50350;SDS011;36250;48.740;22.174;2023-04-25T07:37:39;14.60;;;12.80;;
50350;SDS011;36250;48.740;22.174;2023-04-25T07:40:05;14.77;;;13.27;;
50350;SDS011;36250;48.740;22.174;2023-04-25T07:42:31;16.95;;;14.65;;
50350;SDS011;36250;48.740;22.174;2023-04-25T07:44:57;18.40;;;16.40;;
50350;SDS011;36250;48.740;22.174;2023-04-25T07:47:22;16.42;;;14.88;;
50350;SDS011;36250;48.740;22.174;2023-04-25T07:49:48;16.42;;;14.85;;
50350;SDS011;36250;48.740;22.174;2023-04-25T07:52:13;15.63;;;14.05;;
50350;SDS011;36250;48.740;22.174;2023-04-25T07:54:38;38.95;;;27.10;;
50350;SDS011;36250;48.740;22.174;2023-04-25T07:57:04;19.75;;;16.88;;
50350;SDS011;36250;48.740;22.174;2023-04-25T07:59:31;15.70;;;14.20;;
50350;SDS011;36250;48.740;22.174;2023-04-25T08:01:56;12.05;;;10.95;;
50350;SDS011;36250;48.740;22.174;2023-04-25T08:04:22;10.60;;;9.55;;
50350;SDS011;36250;48.740;22.174;2023-04-25T08:06:48;10.85;;;9.85;;
50350;SDS011;36250;48.740;22.174;2023-04-25T08:09:13;11.40;;;9.73;;
50350;SDS011;36250;48.740;22.174;2023-04-25T08:11:38;5.57;;;4.20;;
50350;SDS011;36250;48.740;22.174;2023-04-25T08:14:04;3.38;;;3.08;;
50350;SDS011;36250;48.740;22.174;2023-04-25T08:16:30;2.83;;;2.10;;
50350;SDS011;36250;48.740;22.174;2023-04-25T08:18:55;2.80;;;1.90;;
50350;SDS011;36250;48.740;22.174;2023-04-25T08:21:21;3.38;;;1.70;;
50350;SDS011;36250;48.740;22.174;2023-04-25T08:23:46;2.97;;;1.67;;
50350;SDS011;36250;48.740;22.174;2023-04-25T08:26:11;3.78;;;1.70;;
50350;SDS011;36250;48.740;22.174;2023-04-25T08:28:37;2.65;;;2.08;;
50350;SDS011;36250;48.740;22.174;2023-04-25T08:31:02;2.53;;;1.90;;
50350;SDS011;36250;48.740;22.174;2023-04-25T08:33:28;1.92;;;1.20;;
50350;SDS011;36250;48.740;22.174;2023-04-25T08:35:54;4.95;;;1.50;;
50350;SDS011;36250;48.740;22.174;2023-04-25T08:38:19;2.28;;;1.80;;
50350;SDS011;36250;48.740;22.174;2023-04-25T08:40:45;2.38;;;1.38;;
50350;SDS011;36250;48.740;22.174;2023-04-25T08:43:15;2.47;;;1.27;;
50350;SDS011;36250;48.740;22.174;2023-04-25T08:45:44;6.50;;;1.10;;
50350;SDS011;36250;48.740;22.174;2023-04-25T08:48:11;1.17;;;1.10;;
50350;SDS011;36250;48.740;22.174;2023-04-25T08:50:50;1.30;;;1.20;;
50350;SDS011;36250;48.740;22.174;2023-04-25T08:53:27;1.98;;;1.23;;
50350;SDS011;36250;48.740;22.174;2023-04-25T08:55:56;1.30;;;1.15;;
50350;SDS011;36250;48.740;22.174;2023-04-25T08:58:23;3.80;;;1.55;;
50350;SDS011;36250;48.740;22.174;2023-04-25T09:00:48;1.48;;;1.00;;
50350;SDS011;36250;48.740;22.174;2023-04-25T09:03:16;1.85;;;0.70;;
50350;SDS011;36250;48.740;22.174;2023-04-25T09:05:42;0.93;;;0.90;;
50350;SDS011;36250;48.740;22.174;2023-04-25T09:08:07;1.50;;;1.10;;
50350;SDS011;36250;48.740;22.174;2023-04-25T09:10:33;2.97;;;0.80;;
50350;SDS011;36250;48.740;22.174;2023-04-25T09:13:09;0.57;;;0.57;;
50350;SDS011;36250;48.740;22.174;2023-04-25T09:15:52;0.80;;;0.80;;
50350;SDS011;36250;48.740;22.174;2023-04-25T09:18:36;2.38;;;2.13;;
50350;SDS011;36250;48.740;22.174;2023-04-25T09:21:06;6.47;;;1.48;;
50350;SDS011;36250;48.740;22.174;2023-04-25T09:23:45;1.88;;;1.20;;
50350;SDS011;36250;48.740;22.174;2023-04-25T09:26:16;1.05;;;0.85;;
50350;SDS011;36250;48.740;22.174;2023-04-25T09:28:45;2.72;;;1.60;;
50350;SDS011;36250;48.740;22.174;2023-04-25T09:31:20;2.70;;;1.80;;
50350;SDS011;36250;48.740;22.174;2023-04-25T09:33:46;1.98;;;1.30;;
50350;SDS011;36250;48.740;22.174;2023-04-25T09:36:12;1.38;;;1.27;;
50350;SDS011;36250;48.740;22.174;2023-04-25T09:38:41;0.98;;;0.93;;
50350;SDS011;36250;48.740;22.174;2023-04-25T09:41:08;1.77;;;1.10;;
50350;SDS011;36250;48.740;22.174;2023-04-25T09:43:35;1.70;;;1.60;;
50350;SDS011;36250;48.740;22.174;2023-04-25T09:46:00;6.32;;;1.92;;
50350;SDS011;36250;48.740;22.174;2023-04-25T09:48:27;1.73;;;1.23;;
50350;SDS011;36250;48.740;22.174;2023-04-25T09:51:14;5.38;;;2.30;;
50350;SDS011;36250;48.740;22.174;2023-04-25T09:53:40;2.85;;;1.58;;
50350;SDS011;36250;48.740;22.174;2023-04-25T09:56:12;4.05;;;2.20;;
50350;SDS011;36250;48.740;22.174;2023-04-25T09:58:39;4.95;;;1.92;;
50350;SDS011;36250;48.740;22.174;2023-04-25T10:01:06;1.25;;;1.15;;
50350;SDS011;36250;48.740;22.174;2023-04-25T10:03:36;0.80;;;0.80;;
50350;SDS011;36250;48.740;22.174;2023-04-25T10:06:08;2.38;;;2.17;;
50350;SDS011;36250;48.740;22.174;2023-04-25T10:08:37;1.23;;;1.17;;
50350;SDS011;36250;48.740;22.174;2023-04-25T10:11:04;6.82;;;0.70;;
50350;SDS011;36250;48.740;22.174;2023-04-25T10:13:30;3.78;;;0.60;;
50350;SDS011;36250;48.740;22.174;2023-04-25T10:15:57;4.03;;;1.08;;
50350;SDS011;36250;48.740;22.174;2023-04-25T10:18:24;3.05;;;0.70;;
50350;SDS011;36250;48.740;22.174;2023-04-25T10:20:51;1.15;;;0.50;;
50350;SDS011;36250;48.740;22.174;2023-04-25T10:23:19;2.63;;;1.60;;
50350;SDS011;36250;48.740;22.174;2023-04-25T10:25:45;5.70;;;2.63;;
50350;SDS011;36250;48.740;22.174;2023-04-25T10:28:11;3.10;;;2.13;;
50350;SDS011;36250;48.740;22.174;2023-04-25T10:30:36;2.47;;;1.58;;
50350;SDS011;36250;48.740;22.174;2023-04-25T10:33:01;2.53;;;1.10;;
50350;SDS011;36250;48.740;22.174;2023-04-25T10:35:42;1.52;;;1.17;;
50350;SDS011;36250;48.740;22.174;2023-04-25T10:38:10;0.98;;;0.90;;
50350;SDS011;36250;48.740;22.174;2023-04-25T10:40:37;0.60;;;0.60;;
50350;SDS011;36250;48.740;22.174;2023-04-25T10:45:56;0.98;;;0.50;;
50350;SDS011;36250;48.740;22.174;2023-04-25T10:48:27;2.42;;;0.90;;
50350;SDS011;36250;48.740;22.174;2023-04-25T10:51:11;0.68;;;0.60;;
50350;SDS011;36250;48.740;22.174;2023-04-25T10:53:45;0.60;;;0.60;;
50350;SDS011;36250;48.740;22.174;2023-04-25T10:59:10;1.35;;;1.13;;
50350;SDS011;36250;48.740;22.174;2023-04-25T11:01:44;2.08;;;1.58;;
50350;SDS011;36250;48.740;22.174;2023-04-25T11:09:48;2.15;;;1.17;;
50350;SDS011;36250;48.740;22.174;2023-04-25T11:12:14;1.50;;;1.08;;
50350;SDS011;36250;48.740;22.174;2023-04-25T11:14:40;5.60;;;3.65;;
50350;SDS011;36250;48.740;22.174;2023-04-25T11:17:05;11.13;;;4.95;;
50350;SDS011;36250;48.740;22.174;2023-04-25T11:19:31;14.30;;;7.38;;
50350;SDS011;36250;48.740;22.174;2023-04-25T11:21:57;2.38;;;2.17;;
50350;SDS011;36250;48.740;22.174;2023-04-25T11:24:28;3.55;;;3.08;;
50350;SDS011;36250;48.740;22.174;2023-04-25T11:26:54;11.35;;;6.85;;
50350;SDS011;36250;48.740;22.174;2023-04-25T11:29:23;5.00;;;1.63;;
50350;SDS011;36250;48.740;22.174;2023-04-25T11:31:51;6.22;;;4.50;;
50350;SDS011;36250;48.740;22.174;2023-04-25T11:34:17;0.95;;;0.95;;
50350;SDS011;36250;48.740;22.174;2023-04-25T11:36:44;0.65;;;0.65;;
50350;SDS011;36250;48.740;22.174;2023-04-25T11:39:10;2.88;;;1.15;;
50350;SDS011;36250;48.740;22.174;2023-04-25T11:41:36;1.15;;;0.88;;
50350;SDS011;36250;48.740;22.174;2023-04-25T11:44:02;2.28;;;1.52;;
50350;SDS011;36250;48.740;22.174;2023-04-25T11:46:28;2.53;;;2.33;;
50350;SDS011;36250;48.740;22.174;2023-04-25T11:48:54;2.20;;;1.20;;
50350;SDS011;36250;48.740;22.174;2023-04-25T11:51:22;2.40;;;2.20;;
50350;SDS011;36250;48.740;22.174;2023-04-25T11:53:47;6.60;;;5.97;;
50350;SDS011;36250;48.740;22.174;2023-04-25T11:56:13;3.90;;;2.05;;
50350;SDS011;36250;48.740;22.174;2023-04-25T12:01:32;4.22;;;3.40;;
50350;SDS011;36250;48.740;22.174;2023-04-25T12:06:44;6.55;;;4.10;;
50350;SDS011;36250;48.740;22.174;2023-04-25T12:09:14;7.60;;;4.20;;
50350;SDS011;36250;48.740;22.174;2023-04-25T12:11:44;2.78;;;2.22;;
50350;SDS011;36250;48.740;22.174;2023-04-25T12:14:11;3.88;;;2.67;;
50350;SDS011;36250;48.740;22.174;2023-04-25T12:16:49;3.72;;;2.67;;
50350;SDS011;36250;48.740;22.174;2023-04-25T12:19:16;7.18;;;3.45;;
50350;SDS011;36250;48.740;22.174;2023-04-25T12:21:42;2.30;;;1.98;;
50350;SDS011;36250;48.740;22.174;2023-04-25T12:26:47;10.40;;;6.20;;
50350;SDS011;36250;48.740;22.174;2023-04-25T12:29:16;12.90;;;7.78;;
50350;SDS011;36250;48.740;22.174;2023-04-25T12:31:46;14.23;;;7.88;;
50350;SDS011;36250;48.740;22.174;2023-04-25T12:34:11;21.67;;;11.68;;
50350;SDS011;36250;48.740;22.174;2023-04-25T12:36:37;13.63;;;7.97;;
50350;SDS011;36250;48.740;22.174;2023-04-25T12:39:03;11.57;;;7.75;;
50350;SDS011;36250;48.740;22.174;2023-04-25T12:41:29;5.97;;;3.80;;
50350;SDS011;36250;48.740;22.174;2023-04-25T12:43:55;7.55;;;3.70;;
50350;SDS011;36250;48.740;22.174;2023-04-25T12:46:20;6.82;;;5.82;;
50350;SDS011;36250;48.740;22.174;2023-04-25T12:48:45;2.67;;;1.95;;
50350;SDS011;36250;48.740;22.174;2023-04-25T12:51:11;1.75;;;1.58;;
50350;SDS011;36250;48.740;22.174;2023-04-25T12:53:36;1.42;;;1.23;;
50350;SDS011;36250;48.740;22.174;2023-04-25T12:56:03;2.45;;;2.25;;
50350;SDS011;36250;48.740;22.174;2023-04-25T12:58:29;3.65;;;2.97;;
50350;SDS011;36250;48.740;22.174;2023-04-25T13:00:54;2.05;;;1.58;;
50350;SDS011;36250;48.740;22.174;2023-04-25T13:03:20;2.58;;;2.00;;
50350;SDS011;36250;48.740;22.174;2023-04-25T13:05:45;3.97;;;2.60;;
50350;SDS011;36250;48.740;22.174;2023-04-25T13:08:11;3.72;;;3.03;;
50350;SDS011;36250;48.740;22.174;2023-04-25T13:10:36;5.60;;;4.70;;
50350;SDS011;36250;48.740;22.174;2023-04-25T13:13:03;3.25;;;2.95;;
50350;SDS011;36250;48.740;22.174;2023-04-25T13:15:30;5.30;;;2.55;;
50350;SDS011;36250;48.740;22.174;2023-04-25T13:17:55;1.23;;;1.13;;
50350;SDS011;36250;48.740;22.174;2023-04-25T13:20:21;2.60;;;1.13;;
50350;SDS011;36250;48.740;22.174;2023-04-25T13:22:47;2.15;;;1.30;;
50350;SDS011;36250;48.740;22.174;2023-04-25T13:25:13;1.23;;;1.13;;
50350;SDS011;36250;48.740;22.174;2023-04-25T13:27:38;1.27;;;0.95;;
50350;SDS011;36250;48.740;22.174;2023-04-25T13:30:05;0.63;;;0.63;;
50350;SDS011;36250;48.740;22.174;2023-04-25T13:32:34;2.60;;;0.70;;
50350;SDS011;36250;48.740;22.174;2023-04-25T13:35:03;1.02;;;0.93;;
50350;SDS011;36250;48.740;22.174;2023-04-25T13:37:29;5.97;;;1.48;;
50350;SDS011;36250;48.740;22.174;2023-04-25T13:39:58;3.75;;;1.90;;
50350;SDS011;36250;48.740;22.174;2023-04-25T13:42:24;3.05;;;1.90;;
50350;SDS011;36250;48.740;22.174;2023-04-25T13:44:49;2.33;;;1.83;;
50350;SDS011;36250;48.740;22.174;2023-04-25T13:47:15;5.50;;;2.13;;
50350;SDS011;36250;48.740;22.174;2023-04-25T13:49:40;1.20;;;1.00;;
50350;SDS011;36250;48.740;22.174;2023-04-25T13:52:06;1.98;;;1.30;;
50350;SDS011;36250;48.740;22.174;2023-04-25T13:54:31;2.85;;;1.98;;
50350;SDS011;36250;48.740;22.174;2023-04-25T13:56:56;2.60;;;2.40;;
50350;SDS011;36250;48.740;22.174;2023-04-25T13:59:24;3.55;;;2.38;;
50350;SDS011;36250;48.740;22.174;2023-04-25T14:01:50;1.65;;;1.50;;
50350;SDS011;36250;48.740;22.174;2023-04-25T14:04:16;5.20;;;2.25;;
50350;SDS011;36250;48.740;22.174;2023-04-25T14:06:41;4.68;;;2.50;;
50350;SDS011;36250;48.740;22.174;2023-04-25T14:09:06;3.20;;;1.90;;
50350;SDS011;36250;48.740;22.174;2023-04-25T14:11:35;1.77;;;1.52;;
50350;SDS011;36250;48.740;22.174;2023-04-25T14:14:01;1.33;;;1.00;;
50350;SDS011;36250;48.740;22.174;2023-04-25T14:16:27;1.77;;;1.50;;
50350;SDS011;36250;48.740;22.174;2023-04-25T14:18:53;1.48;;;1.13;;
50350;SDS011;36250;48.740;22.174;2023-04-25T14:21:19;3.63;;;2.17;;
50350;SDS011;36250;48.740;22.174;2023-04-25T14:23:45;3.83;;;2.72;;
50350;SDS011;36250;48.740;22.174;2023-04-25T14:26:11;3.30;;;1.92;;
50350;SDS011;36250;48.740;22.174;2023-04-25T14:28:37;3.67;;;2.10;;
50350;SDS011;36250;48.740;22.174;2023-04-25T14:31:03;2.25;;;1.60;;
50350;SDS011;36250;48.740;22.174;2023-04-25T14:33:28;2.47;;;1.60;;